sensor_id;sensor_type;location;lat;lon;timestamp;temperature;humidity
32865;DHT22;19219;44.500;11.188;2023-03-01T00:01:04;6.10;99.90
32865;DHT22;19219;44.500;11.188;2023-03-01T00:03:30;6.10;99.90
32865;DHT22;19219;44.500;11.188;2023-03-01T00:05:56;6.10;99.90
32865;DHT22;19219;44.500;11.188;2023-03-01T00:08:21;6.10;99.90
32865;DHT22;19219;44.500;11.188;2023-03-01T00:10:47;6.10;99.90
32865;DHT22;19219;44.500;11.188;2023-03-01T00:13:12;6.00;99.90
32865;DHT22;19219;44.500;11.188;2023-03-01T00:15:39;6.00;99.90
32865;DHT22;19219;44.500;11.188;2023-03-01T00:18:05;6.00;99.90
32865;DHT22;19219;44.500;11.188;2023-03-01T00:20:31;6.00;99.90
32865;DHT22;19219;44.500;11.188;2023-03-01T00:22:57;6.00;99.90
32865;DHT22;19219;44.500;11.188;2023-03-01T00:25:23;5.90;99.90
32865;DHT22;19219;44.500;11.188;2023-03-01T00:27:48;5.90;99.90
32865;DHT22;19219;44.500;11.188;2023-03-01T00:30:15;5.90;99.90
32865;DHT22;19219;44.500;11.188;2023-03-01T00:32:40;5.80;99.90
32865;DHT22;19219;44.500;11.188;2023-03-01T00:35:06;5.80;99.90
32865;DHT22;19219;44.500;11.188;2023-03-01T00:37:32;5.70;99.90
32865;DHT22;19219;44.500;11.188;2023-03-01T00:39:58;5.70;99.90
32865;DHT22;19219;44.500;11.188;2023-03-01T00:42:23;5.70;99.90
32865;DHT22;19219;44.500;11.188;2023-03-01T00:44:49;5.70;99.90
32865;DHT22;19219;44.500;11.188;2023-03-01T00:47:14;5.80;99.90
32865;DHT22;19219;44.500;11.188;2023-03-01T00:49:40;5.70;99.90
32865;DHT22;19219;44.500;11.188;2023-03-01T00:52:06;5.60;99.90
32865;DHT22;19219;44.500;11.188;2023-03-01T00:54:31;5.60;99.90
32865;DHT22;19219;44.500;11.188;2023-03-01T00:56:57;5.60;99.90
32865;DHT22;19219;44.500;11.188;2023-03-01T00:59:23;5.60;99.90
32865;DHT22;19219;44.500;11.188;2023-03-01T01:01:48;5.60;99.90
32865;DHT22;19219;44.500;11.188;2023-03-01T01:04:14;5.50;99.90
32865;DHT22;19219;44.500;11.188;2023-03-01T01:06:45;5.60;99.90
32865;DHT22;19219;44.500;11.188;2023-03-01T01:09:14;5.60;99.90
32865;DHT22;19219;44.500;11.188;2023-03-01T01:11:47;5.60;99.90
32865;DHT22;19219;44.500;11.188;2023-03-01T01:14:13;5.60;99.90
32865;DHT22;19219;44.500;11.188;2023-03-01T01:16:39;5.70;99.90
32865;DHT22;19219;44.500;11.188;2023-03-01T01:19:05;5.70;99.90
32865;DHT22;19219;44.500;11.188;2023-03-01T01:21:30;5.70;99.90
32865;DHT22;19219;44.500;11.188;2023-03-01T01:23:57;5.80;99.90
32865;DHT22;19219;44.500;11.188;2023-03-01T01:26:26;5.80;99.90
32865;DHT22;19219;44.500;11.188;2023-03-01T01:28:53;5.70;99.90
32865;DHT22;19219;44.500;11.188;2023-03-01T01:31:19;5.70;99.90
32865;DHT22;19219;44.500;11.188;2023-03-01T01:33:45;5.60;99.90
32865;DHT22;19219;44.500;11.188;2023-03-01T01:36:11;5.60;99.90
32865;DHT22;19219;44.500;11.188;2023-03-01T01:38:38;5.60;99.90
32865;DHT22;19219;44.500;11.188;2023-03-01T01:41:05;5.60;99.90
32865;DHT22;19219;44.500;11.188;2023-03-01T01:43:43;5.50;99.90
32865;DHT22;19219;44.500;11.188;2023-03-01T01:46:29;5.40;99.90
32865;DHT22;19219;44.500;11.188;2023-03-01T01:49:20;5.40;99.90
32865;DHT22;19219;44.500;11.188;2023-03-01T01:51:49;5.40;99.90
32865;DHT22;19219;44.500;11.188;2023-03-01T01:55:06;5.40;99.90
32865;DHT22;19219;44.500;11.188;2023-03-01T01:57:16;5.40;99.90
32865;DHT22;19219;44.500;11.188;2023-03-01T01:59:47;5.40;99.90
32865;DHT22;19219;44.500;11.188;2023-03-01T02:02:14;5.50;99.90
32865;DHT22;19219;44.500;11.188;2023-03-01T02:04:40;5.50;99.90
32865;DHT22;19219;44.500;11.188;2023-03-01T02:07:13;5.50;99.90
32865;DHT22;19219;44.500;11.188;2023-03-01T02:09:43;5.50;99.90
32865;DHT22;19219;44.500;11.188;2023-03-01T02:12:11;5.50;99.90
32865;DHT22;19219;44.500;11.188;2023-03-01T02:14:36;5.50;99.90
32865;DHT22;19219;44.500;11.188;2023-03-01T02:17:02;5.50;99.90
32865;DHT22;19219;44.500;11.188;2023-03-01T02:19:40;5.60;99.90
32865;DHT22;19219;44.500;11.188;2023-03-01T02:27:28;5.50;99.90
32865;DHT22;19219;44.500;11.188;2023-03-01T02:29:55;5.50;99.90
32865;DHT22;19219;44.500;11.188;2023-03-01T02:32:21;5.50;99.90
32865;DHT22;19219;44.500;11.188;2023-03-01T02:34:54;5.40;99.90
32865;DHT22;19219;44.500;11.188;2023-03-01T02:37:21;5.30;99.90
32865;DHT22;19219;44.500;11.188;2023-03-01T02:39:56;5.30;99.90
32865;DHT22;19219;44.500;11.188;2023-03-01T02:42:29;5.30;99.90
32865;DHT22;19219;44.500;11.188;2023-03-01T02:44:55;5.30;99.90
32865;DHT22;19219;44.500;11.188;2023-03-01T02:47:21;5.30;99.90
32865;DHT22;19219;44.500;11.188;2023-03-01T02:49:47;5.30;99.90
32865;DHT22;19219;44.500;11.188;2023-03-01T02:52:37;5.40;99.90
32865;DHT22;19219;44.500;11.188;2023-03-01T02:55:11;5.40;99.90
32865;DHT22;19219;44.500;11.188;2023-03-01T02:57:41;5.30;99.90
32865;DHT22;19219;44.500;11.188;2023-03-01T03:00:11;5.40;99.90
32865;DHT22;19219;44.500;11.188;2023-03-01T03:02:48;5.40;99.90
32865;DHT22;19219;44.500;11.188;2023-03-01T03:05:17;5.50;99.90
32865;DHT22;19219;44.500;11.188;2023-03-01T03:07:45;5.40;99.90
32865;DHT22;19219;44.500;11.188;2023-03-01T03:10:21;5.40;99.90
32865;DHT22;19219;44.500;11.188;2023-03-01T03:12:52;5.50;99.90
32865;DHT22;19219;44.500;11.188;2023-03-01T03:15:18;5.40;99.90
32865;DHT22;19219;44.500;11.188;2023-03-01T03:17:46;5.40;99.90
32865;DHT22;19219;44.500;11.188;2023-03-01T03:20:14;5.40;99.90
32865;DHT22;19219;44.500;11.188;2023-03-01T03:22:45;5.40;99.90
32865;DHT22;19219;44.500;11.188;2023-03-01T03:25:11;5.40;99.90
32865;DHT22;19219;44.500;11.188;2023-03-01T03:27:38;5.40;99.90
32865;DHT22;19219;44.500;11.188;2023-03-01T03:30:06;5.40;99.90
32865;DHT22;19219;44.500;11.188;2023-03-01T03:32:41;5.30;99.90
32865;DHT22;19219;44.500;11.188;2023-03-01T03:35:09;5.30;99.90
32865;DHT22;19219;44.500;11.188;2023-03-01T03:37:39;5.40;99.90
32865;DHT22;19219;44.500;11.188;2023-03-01T03:40:24;5.40;99.90
32865;DHT22;19219;44.500;11.188;2023-03-01T03:42:50;5.40;99.90
32865;DHT22;19219;44.500;11.188;2023-03-01T03:45:17;5.50;99.90
32865;DHT22;19219;44.500;11.188;2023-03-01T03:47:42;5.40;99.90
32865;DHT22;19219;44.500;11.188;2023-03-01T03:50:13;5.40;99.90
32865;DHT22;19219;44.500;11.188;2023-03-01T03:52:39;5.30;99.90
32865;DHT22;19219;44.500;11.188;2023-03-01T03:55:06;5.20;99.90
32865;DHT22;19219;44.500;11.188;2023-03-01T03:57:42;5.20;99.90
32865;DHT22;19219;44.500;11.188;2023-03-01T04:00:10;5.30;99.90
32865;DHT22;19219;44.500;11.188;2023-03-01T04:02:40;5.30;99.90
32865;DHT22;19219;44.500;11.188;2023-03-01T04:05:07;5.20;99.90
32865;DHT22;19219;44.500;11.188;2023-03-01T04:07:34;5.10;99.90
32865;DHT22;19219;44.500;11.188;2023-03-01T04:10:01;5.10;99.90
32865;DHT22;19219;44.500;11.188;2023-03-01T04:12:27;5.10;99.90
32865;DHT22;19219;44.500;11.188;2023-03-01T04:14:52;5.00;99.90
32865;DHT22;19219;44.500;11.188;2023-03-01T04:17:18;5.00;99.90
32865;DHT22;19219;44.500;11.188;2023-03-01T04:19:44;5.00;99.90
32865;DHT22;19219;44.500;11.188;2023-03-01T04:22:14;5.00;99.90
32865;DHT22;19219;44.500;11.188;2023-03-01T04:24:44;5.00;99.90
32865;DHT22;19219;44.500;11.188;2023-03-01T04:27:10;5.00;99.90
32865;DHT22;19219;44.500;11.188;2023-03-01T04:29:36;5.00;99.90
32865;DHT22;19219;44.500;11.188;2023-03-01T04:32:02;5.00;99.90
32865;DHT22;19219;44.500;11.188;2023-03-01T04:34:29;5.00;99.90
32865;DHT22;19219;44.500;11.188;2023-03-01T04:36:55;5.00;99.90
32865;DHT22;19219;44.500;11.188;2023-03-01T04:39:21;5.00;99.90
32865;DHT22;19219;44.500;11.188;2023-03-01T04:41:47;4.90;99.90
32865;DHT22;19219;44.500;11.188;2023-03-01T04:44:12;4.90;99.90
32865;DHT22;19219;44.500;11.188;2023-03-01T04:46:38;4.90;99.90
32865;DHT22;19219;44.500;11.188;2023-03-01T04:49:04;4.80;99.90
32865;DHT22;19219;44.500;11.188;2023-03-01T04:51:31;4.70;99.90
32865;DHT22;19219;44.500;11.188;2023-03-01T04:53:58;4.70;99.90
32865;DHT22;19219;44.500;11.188;2023-03-01T04:56:24;4.60;99.90
32865;DHT22;19219;44.500;11.188;2023-03-01T04:58:52;4.60;99.90
32865;DHT22;19219;44.500;11.188;2023-03-01T05:01:19;4.60;99.90
32865;DHT22;19219;44.500;11.188;2023-03-01T05:03:50;4.50;99.90
32865;DHT22;19219;44.500;11.188;2023-03-01T05:06:17;4.60;99.90
32865;DHT22;19219;44.500;11.188;2023-03-01T05:08:43;4.60;99.90
32865;DHT22;19219;44.500;11.188;2023-03-01T05:11:10;4.70;99.90
32865;DHT22;19219;44.500;11.188;2023-03-01T05:13:37;4.70;99.90
32865;DHT22;19219;44.500;11.188;2023-03-01T05:16:04;4.70;99.90
32865;DHT22;19219;44.500;11.188;2023-03-01T05:18:33;4.70;99.90
32865;DHT22;19219;44.500;11.188;2023-03-01T05:21:08;4.70;99.90
32865;DHT22;19219;44.500;11.188;2023-03-01T05:23:34;4.80;99.90
32865;DHT22;19219;44.500;11.188;2023-03-01T05:26:02;4.80;99.90
32865;DHT22;19219;44.500;11.188;2023-03-01T05:28:30;4.80;99.90
32865;DHT22;19219;44.500;11.188;2023-03-01T05:30:56;4.80;99.90
32865;DHT22;19219;44.500;11.188;2023-03-01T05:33:23;4.70;99.90
32865;DHT22;19219;44.500;11.188;2023-03-01T05:35:51;4.70;99.90
32865;DHT22;19219;44.500;11.188;2023-03-01T05:38:20;4.70;99.90
32865;DHT22;19219;44.500;11.188;2023-03-01T05:40:48;4.60;99.90
32865;DHT22;19219;44.500;11.188;2023-03-01T05:43:15;4.60;99.90
32865;DHT22;19219;44.500;11.188;2023-03-01T05:45:42;4.50;99.90
32865;DHT22;19219;44.500;11.188;2023-03-01T05:48:09;4.50;99.90
32865;DHT22;19219;44.500;11.188;2023-03-01T05:50:37;4.40;99.90
32865;DHT22;19219;44.500;11.188;2023-03-01T05:53:07;4.30;99.90
32865;DHT22;19219;44.500;11.188;2023-03-01T05:55:33;4.40;99.90
32865;DHT22;19219;44.500;11.188;2023-03-01T05:58:01;4.40;99.90
32865;DHT22;19219;44.500;11.188;2023-03-01T06:00:28;4.40;99.90
32865;DHT22;19219;44.500;11.188;2023-03-01T06:02:55;4.30;99.90
32865;DHT22;19219;44.500;11.188;2023-03-01T06:05:21;4.30;99.90
32865;DHT22;19219;44.500;11.188;2023-03-01T06:07:47;4.30;99.90
32865;DHT22;19219;44.500;11.188;2023-03-01T06:10:14;4.30;99.90
32865;DHT22;19219;44.500;11.188;2023-03-01T06:12:41;4.30;99.90
32865;DHT22;19219;44.500;11.188;2023-03-01T06:15:08;4.30;99.90
32865;DHT22;19219;44.500;11.188;2023-03-01T06:17:38;4.40;99.90
32865;DHT22;19219;44.500;11.188;2023-03-01T06:20:11;4.30;99.90
32865;DHT22;19219;44.500;11.188;2023-03-01T06:22:37;4.40;99.90
32865;DHT22;19219;44.500;11.188;2023-03-01T06:25:03;4.40;99.90
32865;DHT22;19219;44.500;11.188;2023-03-01T06:27:29;4.40;99.90
32865;DHT22;19219;44.500;11.188;2023-03-01T06:29:55;4.40;99.90
32865;DHT22;19219;44.500;11.188;2023-03-01T06:32:20;4.40;99.90
32865;DHT22;19219;44.500;11.188;2023-03-01T06:34:46;4.30;99.90
32865;DHT22;19219;44.500;11.188;2023-03-01T06:37:12;4.30;99.90
32865;DHT22;19219;44.500;11.188;2023-03-01T06:39:37;4.40;99.90
32865;DHT22;19219;44.500;11.188;2023-03-01T06:42:03;4.30;99.90
32865;DHT22;19219;44.500;11.188;2023-03-01T06:44:29;4.30;99.90
32865;DHT22;19219;44.500;11.188;2023-03-01T06:46:55;4.30;99.90
32865;DHT22;19219;44.500;11.188;2023-03-01T06:49:21;4.30;99.90
32865;DHT22;19219;44.500;11.188;2023-03-01T06:51:47;4.20;99.90
32865;DHT22;19219;44.500;11.188;2023-03-01T06:54:13;4.20;99.90
32865;DHT22;19219;44.500;11.188;2023-03-01T06:56:39;4.30;99.90
32865;DHT22;19219;44.500;11.188;2023-03-01T06:59:05;4.30;99.90
32865;DHT22;19219;44.500;11.188;2023-03-01T07:01:31;4.20;99.90
32865;DHT22;19219;44.500;11.188;2023-03-01T07:03:57;4.00;99.90
32865;DHT22;19219;44.500;11.188;2023-03-01T07:06:23;4.10;99.90
32865;DHT22;19219;44.500;11.188;2023-03-01T07:08:49;4.00;99.90
32865;DHT22;19219;44.500;11.188;2023-03-01T07:11:15;4.00;99.90
32865;DHT22;19219;44.500;11.188;2023-03-01T07:13:41;4.00;99.90
32865;DHT22;19219;44.500;11.188;2023-03-01T07:16:07;4.00;99.90
32865;DHT22;19219;44.500;11.188;2023-03-01T07:18:33;4.00;99.90
32865;DHT22;19219;44.500;11.188;2023-03-01T07:21:04;4.00;99.90
32865;DHT22;19219;44.500;11.188;2023-03-01T07:23:30;3.90;99.90
32865;DHT22;19219;44.500;11.188;2023-03-01T07:25:55;4.00;99.90
32865;DHT22;19219;44.500;11.188;2023-03-01T07:28:24;4.10;99.90
32865;DHT22;19219;44.500;11.188;2023-03-01T07:30:50;4.00;99.90
32865;DHT22;19219;44.500;11.188;2023-03-01T07:33:16;4.00;99.90
32865;DHT22;19219;44.500;11.188;2023-03-01T07:35:42;4.00;99.90
32865;DHT22;19219;44.500;11.188;2023-03-01T07:38:08;4.00;99.90
32865;DHT22;19219;44.500;11.188;2023-03-01T07:40:33;4.10;99.90
32865;DHT22;19219;44.500;11.188;2023-03-01T07:42:59;4.00;99.90
32865;DHT22;19219;44.500;11.188;2023-03-01T07:45:27;4.10;99.90
32865;DHT22;19219;44.500;11.188;2023-03-01T07:47:53;4.00;99.90
32865;DHT22;19219;44.500;11.188;2023-03-01T07:50:20;4.00;99.90
32865;DHT22;19219;44.500;11.188;2023-03-01T07:52:46;4.00;99.90
32865;DHT22;19219;44.500;11.188;2023-03-01T07:55:13;4.00;99.90
32865;DHT22;19219;44.500;11.188;2023-03-01T07:57:38;4.00;99.90
32865;DHT22;19219;44.500;11.188;2023-03-01T08:00:05;4.00;99.90
32865;DHT22;19219;44.500;11.188;2023-03-01T08:02:31;4.00;99.90
32865;DHT22;19219;44.500;11.188;2023-03-01T08:04:57;3.90;99.90
32865;DHT22;19219;44.500;11.188;2023-03-01T08:07:22;3.90;99.90
32865;DHT22;19219;44.500;11.188;2023-03-01T08:09:48;4.00;99.90
32865;DHT22;19219;44.500;11.188;2023-03-01T08:12:14;4.00;99.90
32865;DHT22;19219;44.500;11.188;2023-03-01T08:14:42;4.00;99.90
32865;DHT22;19219;44.500;11.188;2023-03-01T08:17:07;4.10;99.90
32865;DHT22;19219;44.500;11.188;2023-03-01T08:19:33;4.00;99.90
32865;DHT22;19219;44.500;11.188;2023-03-01T08:22:01;4.00;99.90
32865;DHT22;19219;44.500;11.188;2023-03-01T08:24:27;4.00;99.90
32865;DHT22;19219;44.500;11.188;2023-03-01T08:26:53;3.90;99.90
32865;DHT22;19219;44.500;11.188;2023-03-01T08:29:19;3.80;99.90
32865;DHT22;19219;44.500;11.188;2023-03-01T08:31:45;3.80;99.90
32865;DHT22;19219;44.500;11.188;2023-03-01T08:34:13;3.80;99.90
32865;DHT22;19219;44.500;11.188;2023-03-01T08:36:41;3.70;99.90
32865;DHT22;19219;44.500;11.188;2023-03-01T08:39:09;3.80;99.90
32865;DHT22;19219;44.500;11.188;2023-03-01T08:41:35;3.80;99.90
32865;DHT22;19219;44.500;11.188;2023-03-01T08:44:01;3.80;99.90
32865;DHT22;19219;44.500;11.188;2023-03-01T08:46:29;3.80;99.90
32865;DHT22;19219;44.500;11.188;2023-03-01T08:48:55;3.80;99.90
32865;DHT22;19219;44.500;11.188;2023-03-01T08:51:21;3.70;99.90
32865;DHT22;19219;44.500;11.188;2023-03-01T08:53:48;3.80;99.90
32865;DHT22;19219;44.500;11.188;2023-03-01T08:56:14;3.80;99.90
32865;DHT22;19219;44.500;11.188;2023-03-01T08:58:44;3.90;99.90
32865;DHT22;19219;44.500;11.188;2023-03-01T09:01:13;3.90;99.90
32865;DHT22;19219;44.500;11.188;2023-03-01T09:03:39;4.00;99.90
32865;DHT22;19219;44.500;11.188;2023-03-01T09:06:06;3.90;99.90
32865;DHT22;19219;44.500;11.188;2023-03-01T09:08:35;3.90;99.90
32865;DHT22;19219;44.500;11.188;2023-03-01T09:11:02;4.00;99.90
32865;DHT22;19219;44.500;11.188;2023-03-01T09:13:29;4.00;99.90
32865;DHT22;19219;44.500;11.188;2023-03-01T09:15:57;4.00;99.90
32865;DHT22;19219;44.500;11.188;2023-03-01T09:18:23;4.10;99.90
32865;DHT22;19219;44.500;11.188;2023-03-01T09:20:49;4.10;99.90
32865;DHT22;19219;44.500;11.188;2023-03-01T09:23:15;4.10;99.90
32865;DHT22;19219;44.500;11.188;2023-03-01T09:25:40;4.10;99.90
32865;DHT22;19219;44.500;11.188;2023-03-01T09:28:06;4.00;99.90
32865;DHT22;19219;44.500;11.188;2023-03-01T09:30:32;4.00;99.90
32865;DHT22;19219;44.500;11.188;2023-03-01T09:32:57;4.10;99.90
32865;DHT22;19219;44.500;11.188;2023-03-01T09:35:23;4.00;99.90
32865;DHT22;19219;44.500;11.188;2023-03-01T09:37:49;4.00;99.90
32865;DHT22;19219;44.500;11.188;2023-03-01T09:40:18;4.10;99.90
32865;DHT22;19219;44.500;11.188;2023-03-01T09:42:56;4.00;99.90
32865;DHT22;19219;44.500;11.188;2023-03-01T09:47:56;4.00;99.90
32865;DHT22;19219;44.500;11.188;2023-03-01T09:50:22;4.10;99.90
32865;DHT22;19219;44.500;11.188;2023-03-01T09:53:09;4.20;99.90
32865;DHT22;19219;44.500;11.188;2023-03-01T10:01:46;4.50;99.90
32865;DHT22;19219;44.500;11.188;2023-03-01T10:04:44;4.60;99.90
32865;DHT22;19219;44.500;11.188;2023-03-01T10:07:21;4.60;99.90
32865;DHT22;19219;44.500;11.188;2023-03-01T10:09:48;4.70;99.90
32865;DHT22;19219;44.500;11.188;2023-03-01T10:12:23;4.70;99.90
32865;DHT22;19219;44.500;11.188;2023-03-01T10:15:05;4.70;99.90
32865;DHT22;19219;44.500;11.188;2023-03-01T10:17:47;4.60;99.90
32865;DHT22;19219;44.500;11.188;2023-03-01T10:22:49;4.70;99.90
32865;DHT22;19219;44.500;11.188;2023-03-01T10:31:20;4.60;99.90
32865;DHT22;19219;44.500;11.188;2023-03-01T10:33:48;4.60;99.90
32865;DHT22;19219;44.500;11.188;2023-03-01T10:36:18;4.50;99.90
32865;DHT22;19219;44.500;11.188;2023-03-01T10:39:17;4.50;99.90
32865;DHT22;19219;44.500;11.188;2023-03-01T10:41:55;4.30;99.90
32865;DHT22;19219;44.500;11.188;2023-03-01T10:44:44;4.30;99.90
32865;DHT22;19219;44.500;11.188;2023-03-01T10:50:03;4.10;99.90
32865;DHT22;19219;44.500;11.188;2023-03-01T10:52:36;4.30;99.90
32865;DHT22;19219;44.500;11.188;2023-03-01T10:55:35;4.40;99.90
32865;DHT22;19219;44.500;11.188;2023-03-01T10:58:21;4.50;99.90
32865;DHT22;19219;44.500;11.188;2023-03-01T11:00:55;4.40;99.90
32865;DHT22;19219;44.500;11.188;2023-03-01T11:05:58;4.60;99.90
32865;DHT22;19219;44.500;11.188;2023-03-01T11:08:46;4.60;99.90
32865;DHT22;19219;44.500;11.188;2023-03-01T11:13:57;4.60;99.90
32865;DHT22;19219;44.500;11.188;2023-03-01T11:21:39;4.50;99.90
32865;DHT22;19219;44.500;11.188;2023-03-01T11:24:09;4.50;99.90
32865;DHT22;19219;44.500;11.188;2023-03-01T11:26:42;4.30;99.90
32865;DHT22;19219;44.500;11.188;2023-03-01T11:31:51;4.00;99.90
32865;DHT22;19219;44.500;11.188;2023-03-01T11:34:28;4.00;99.90
32865;DHT22;19219;44.500;11.188;2023-03-01T11:37:00;4.00;99.90
32865;DHT22;19219;44.500;11.188;2023-03-01T11:39:54;4.00;99.90
32865;DHT22;19219;44.500;11.188;2023-03-01T11:42:31;4.00;99.90
32865;DHT22;19219;44.500;11.188;2023-03-01T11:45:08;4.00;99.90
32865;DHT22;19219;44.500;11.188;2023-03-01T11:48:24;4.10;99.90
32865;DHT22;19219;44.500;11.188;2023-03-01T11:53:25;4.00;99.90
32865;DHT22;19219;44.500;11.188;2023-03-01T11:56:32;4.10;99.90
32865;DHT22;19219;44.500;11.188;2023-03-01T12:15:04;4.20;99.90
32865;DHT22;19219;44.500;11.188;2023-03-01T12:23:14;4.20;99.90
32865;DHT22;19219;44.500;11.188;2023-03-01T12:45:02;3.60;99.90
32865;DHT22;19219;44.500;11.188;2023-03-01T12:47:46;3.60;99.90
32865;DHT22;19219;44.500;11.188;2023-03-01T12:50:20;3.60;99.90
32865;DHT22;19219;44.500;11.188;2023-03-01T12:55:33;3.70;99.90
32865;DHT22;19219;44.500;11.188;2023-03-01T13:00:41;3.60;99.90
32865;DHT22;19219;44.500;11.188;2023-03-01T13:06:20;3.60;99.90
32865;DHT22;19219;44.500;11.188;2023-03-01T13:09:05;3.60;99.90
32865;DHT22;19219;44.500;11.188;2023-03-01T13:11:34;3.60;99.90
32865;DHT22;19219;44.500;11.188;2023-03-01T13:16:52;3.60;99.90
32865;DHT22;19219;44.500;11.188;2023-03-01T13:19:23;3.50;99.90
32865;DHT22;19219;44.500;11.188;2023-03-01T13:21:52;3.60;99.90
32865;DHT22;19219;44.500;11.188;2023-03-01T13:29:46;3.60;99.90
32865;DHT22;19219;44.500;11.188;2023-03-01T13:37:40;3.40;99.90
32865;DHT22;19219;44.500;11.188;2023-03-01T13:42:49;3.40;99.90
32865;DHT22;19219;44.500;11.188;2023-03-01T13:47:45;3.50;99.90
32865;DHT22;19219;44.500;11.188;2023-03-01T13:50:28;3.50;99.90
32865;DHT22;19219;44.500;11.188;2023-03-01T13:53:04;3.50;99.90
32865;DHT22;19219;44.500;11.188;2023-03-01T13:55:40;3.50;99.90
32865;DHT22;19219;44.500;11.188;2023-03-01T13:58:23;3.60;99.90
32865;DHT22;19219;44.500;11.188;2023-03-01T14:01:02;3.60;99.90
32865;DHT22;19219;44.500;11.188;2023-03-01T14:03:29;3.60;99.90
32865;DHT22;19219;44.500;11.188;2023-03-01T14:06:15;3.60;99.90
32865;DHT22;19219;44.500;11.188;2023-03-01T14:08:44;3.70;99.90
32865;DHT22;19219;44.500;11.188;2023-03-01T14:19:20;3.80;99.90
32865;DHT22;19219;44.500;11.188;2023-03-01T14:22:20;3.80;99.90
32865;DHT22;19219;44.500;11.188;2023-03-01T14:24:49;3.90;99.90
32865;DHT22;19219;44.500;11.188;2023-03-01T14:27:15;3.80;99.90
32865;DHT22;19219;44.500;11.188;2023-03-01T14:29:41;3.90;99.90
32865;DHT22;19219;44.500;11.188;2023-03-01T14:32:20;3.80;99.90
32865;DHT22;19219;44.500;11.188;2023-03-01T14:34:48;3.80;99.90
32865;DHT22;19219;44.500;11.188;2023-03-01T14:37:34;3.80;99.90
32865;DHT22;19219;44.500;11.188;2023-03-01T14:40:03;3.70;99.90
32865;DHT22;19219;44.500;11.188;2023-03-01T14:42:34;3.80;99.90
32865;DHT22;19219;44.500;11.188;2023-03-01T14:45:01;3.80;99.90
32865;DHT22;19219;44.500;11.188;2023-03-01T14:47:33;3.80;99.90
32865;DHT22;19219;44.500;11.188;2023-03-01T14:50:08;3.70;99.90
32865;DHT22;19219;44.500;11.188;2023-03-01T14:52:42;3.70;99.90
32865;DHT22;19219;44.500;11.188;2023-03-01T14:55:23;3.60;99.90
32865;DHT22;19219;44.500;11.188;2023-03-01T14:57:52;3.60;99.90
32865;DHT22;19219;44.500;11.188;2023-03-01T15:00:27;3.50;99.90
32865;DHT22;19219;44.500;11.188;2023-03-01T15:02:56;3.50;99.90
32865;DHT22;19219;44.500;11.188;2023-03-01T15:05:32;3.50;99.90
32865;DHT22;19219;44.500;11.188;2023-03-01T15:08:01;3.60;99.90
32865;DHT22;19219;44.500;11.188;2023-03-01T15:10:29;3.50;99.90
32865;DHT22;19219;44.500;11.188;2023-03-01T15:12:56;3.50;99.90
32865;DHT22;19219;44.500;11.188;2023-03-01T15:18:00;3.30;99.90
32865;DHT22;19219;44.500;11.188;2023-03-01T15:20:28;3.40;99.90
32865;DHT22;19219;44.500;11.188;2023-03-01T15:22:56;3.50;99.90
32865;DHT22;19219;44.500;11.188;2023-03-01T15:25:27;3.50;99.90
32865;DHT22;19219;44.500;11.188;2023-03-01T15:27:55;3.40;99.90
32865;DHT22;19219;44.500;11.188;2023-03-01T15:30:33;3.50;99.90
32865;DHT22;19219;44.500;11.188;2023-03-01T15:33:20;3.50;99.90
32865;DHT22;19219;44.500;11.188;2023-03-01T15:35:59;3.50;99.90
32865;DHT22;19219;44.500;11.188;2023-03-01T15:41:26;3.60;99.90
32865;DHT22;19219;44.500;11.188;2023-03-01T15:43:53;3.50;99.90
32865;DHT22;19219;44.500;11.188;2023-03-01T15:46:31;3.50;99.90
32865;DHT22;19219;44.500;11.188;2023-03-01T15:51:52;3.20;99.90
32865;DHT22;19219;44.500;11.188;2023-03-01T15:54:22;3.20;99.90
32865;DHT22;19219;44.500;11.188;2023-03-01T15:56:48;3.30;99.90
32865;DHT22;19219;44.500;11.188;2023-03-01T15:59:14;3.30;99.90
32865;DHT22;19219;44.500;11.188;2023-03-01T16:01:41;3.30;99.90
32865;DHT22;19219;44.500;11.188;2023-03-01T16:04:12;3.20;99.90
32865;DHT22;19219;44.500;11.188;2023-03-01T16:06:41;3.30;99.90
32865;DHT22;19219;44.500;11.188;2023-03-01T16:09:07;3.20;99.90
32865;DHT22;19219;44.500;11.188;2023-03-01T16:11:34;3.30;99.90
32865;DHT22;19219;44.500;11.188;2023-03-01T16:14:02;3.30;99.90
32865;DHT22;19219;44.500;11.188;2023-03-01T16:16:28;3.30;99.90
32865;DHT22;19219;44.500;11.188;2023-03-01T16:18:53;3.20;99.90
32865;DHT22;19219;44.500;11.188;2023-03-01T16:21:22;3.20;99.90
32865;DHT22;19219;44.500;11.188;2023-03-01T16:23:49;3.20;99.90
32865;DHT22;19219;44.500;11.188;2023-03-01T16:26:15;3.10;99.90
32865;DHT22;19219;44.500;11.188;2023-03-01T16:28:44;3.10;99.90
32865;DHT22;19219;44.500;11.188;2023-03-01T16:31:11;3.10;99.90
32865;DHT22;19219;44.500;11.188;2023-03-01T16:33:37;3.10;99.90
32865;DHT22;19219;44.500;11.188;2023-03-01T16:36:11;3.10;99.90
32865;DHT22;19219;44.500;11.188;2023-03-01T16:38:37;3.10;99.90
32865;DHT22;19219;44.500;11.188;2023-03-01T16:41:03;3.10;99.90
32865;DHT22;19219;44.500;11.188;2023-03-01T16:43:30;3.10;99.90
32865;DHT22;19219;44.500;11.188;2023-03-01T16:45:56;3.10;99.90
32865;DHT22;19219;44.500;11.188;2023-03-01T16:48:22;3.10;99.90
32865;DHT22;19219;44.500;11.188;2023-03-01T16:51:08;3.10;99.90
32865;DHT22;19219;44.500;11.188;2023-03-01T16:53:34;3.20;99.90
32865;DHT22;19219;44.500;11.188;2023-03-01T16:56:06;3.30;99.90
32865;DHT22;19219;44.500;11.188;2023-03-01T16:58:33;3.30;99.90
32865;DHT22;19219;44.500;11.188;2023-03-01T17:01:11;3.40;99.90
32865;DHT22;19219;44.500;11.188;2023-03-01T17:03:38;3.30;99.90
32865;DHT22;19219;44.500;11.188;2023-03-01T17:06:05;3.40;99.90
32865;DHT22;19219;44.500;11.188;2023-03-01T17:08:32;3.40;99.90
32865;DHT22;19219;44.500;11.188;2023-03-01T17:11:12;3.40;99.90
32865;DHT22;19219;44.500;11.188;2023-03-01T17:13:39;3.40;99.90
32865;DHT22;19219;44.500;11.188;2023-03-01T17:16:07;3.40;99.90
32865;DHT22;19219;44.500;11.188;2023-03-01T17:18:33;3.40;99.90
32865;DHT22;19219;44.500;11.188;2023-03-01T17:20:59;3.40;99.90
32865;DHT22;19219;44.500;11.188;2023-03-01T17:23:26;3.50;99.90
32865;DHT22;19219;44.500;11.188;2023-03-01T17:25:53;3.50;99.90
32865;DHT22;19219;44.500;11.188;2023-03-01T17:28:24;3.40;99.90
32865;DHT22;19219;44.500;11.188;2023-03-01T17:30:50;3.50;99.90
32865;DHT22;19219;44.500;11.188;2023-03-01T17:33:16;3.50;99.90
32865;DHT22;19219;44.500;11.188;2023-03-01T17:35:42;3.50;99.90
32865;DHT22;19219;44.500;11.188;2023-03-01T17:38:10;3.40;99.90
32865;DHT22;19219;44.500;11.188;2023-03-01T17:40:36;3.50;99.90
32865;DHT22;19219;44.500;11.188;2023-03-01T17:43:04;3.60;99.90
32865;DHT22;19219;44.500;11.188;2023-03-01T17:45:29;3.60;99.90
32865;DHT22;19219;44.500;11.188;2023-03-01T17:47:55;3.60;99.90
32865;DHT22;19219;44.500;11.188;2023-03-01T17:50:21;3.70;99.90